Flight Track Log - Related Links

Times and Time Zones

All times are in EST time to prevent confusion due to time zone crossing. See the AFL150 flight status page for this flight to view local times or setup timezone preferences in your user account.


Time Position Orientation Groundspeed Altitude Reporting Facility
EST Latitude Longitude Course Direction KTS MPH feet Rate Location/Type
Tue 08:27:30 AM 59.6241 17.9090 192° South 153 176 1,400  Level FlightAware ADS-B
Tue 08:27:51 AM 59.6092 17.8982 200° South 157 181 1,900 1,200 Climbing FlightAware ADS-B
Tue 08:28:10 AM 59.6017 17.8736 239° Southwest 168 193 2,200 750 Climbing FlightAware ADS-B
Tue 08:28:31 AM 59.5942 17.8431 244° Southwest 196 226 2,400 1,024 Climbing FlightAware ADS-B
Tue 08:28:51 AM 59.5856 17.8095 243° Southwest 204 235 2,900 1,350 Climbing FlightAware ADS-B
Tue 08:29:11 AM 59.5762 17.7726 243° Southwest 229 264 3,300 1,650 Climbing FlightAware ADS-B
Tue 08:29:31 AM 59.5677 17.7348 246° West 235 270 4,000 2,400 Climbing FlightAware ADS-B
Tue 08:29:51 AM 59.5681 17.6917 271° West 238 274 4,900 2,550 Climbing FlightAware ADS-B
Tue 08:30:11 AM 59.5693 17.6472 273° West 241 277 5,700 2,250 Climbing FlightAware ADS-B
Tue 08:30:31 AM 59.5714 17.6051 276° West 245 282 6,400 2,100 Climbing FlightAware ADS-B
Tue 08:30:51 AM 59.5764 17.5613 283° West 255 293 7,100 2,250 Climbing FlightAware ADS-B
Tue 08:31:11 AM 59.5817 17.5123 282° West 262 302 7,900 2,700 Climbing FlightAware ADS-B
Tue 08:31:31 AM 59.5867 17.4655 282° West 260 299 8,900 2,615 Climbing FlightAware ADS-B
Tue 08:31:50 AM 59.5913 17.4212 282° West 263 303 9,600 1,900 Climbing FlightAware ADS-B
Tue 08:32:31 AM 59.6016 17.3225 282° West 281 323 10,800 1,333 Climbing FlightAware ADS-B
Tue 08:33:11 AM 59.6128 17.2155 282° West 322 371 11,400 1,125 Climbing FlightAware ADS-B
Tue 08:33:51 AM 59.6253 17.0928 282° West 350 403 12,300 1,950 Climbing FlightAware ADS-B
Tue 08:34:31 AM 59.6378 16.9691 281° West 352 405 14,000 2,475 Climbing FlightAware ADS-B
Tue 08:35:11 AM 59.6505 16.8415 281° West 353 406 15,600 2,100 Climbing FlightAware ADS-B
Tue 08:35:51 AM 59.6631 16.7153 281° West 363 418 16,800 1,823 Climbing FlightAware ADS-B
Tue 08:36:30 AM 59.6758 16.5855 281° West 374 430 18,000 2,025 Climbing FlightAware ADS-B
Tue 08:37:11 AM 59.6888 16.4506 281° West 372 428 19,500 1,778 Climbing FlightAware ADS-B
Tue 08:37:51 AM 59.7021 16.3121 281° West 385 443 20,400 1,575 Climbing FlightAware ADS-B
Tue 08:38:31 AM 59.7150 16.1755 281° West 388 447 21,600 1,636 Climbing FlightAware ADS-B
Tue 08:39:52 AM 59.7418 15.8867 281° West 400 460 23,700 1,453 Climbing FlightAware ADS-B
Tue 08:40:39 AM 59.7575 15.7148 280° West 407 468 24,700 344 Climbing FlightAware ADS-B
Tue 08:43:00 AM 59.8418 15.2144 289° West  Level Estimated
Tue 08:44:00 AM 59.8771 15.0007 288° West  Level Estimated
Tue 08:45:00 AM 59.9120 14.7866 288° West  Level Estimated
Tue 08:46:00 AM 59.9467 14.5720 288° West  Level Estimated
Tue 08:47:00 AM 59.9809 14.3569 288° West  Level Estimated
Tue 08:48:00 AM 60.0148 14.1414 288° West  Level Estimated
Tue 08:49:00 AM 60.0484 13.9255 287° West  Level Estimated
Tue 08:50:00 AM 60.0816 13.7091 287° West  Level Estimated
Tue 08:51:00 AM 60.1144 13.4923 287° West  Level Estimated
Tue 08:52:00 AM 60.1469 13.2751 287° West  Level Estimated
Tue 08:53:00 AM 60.1791 13.0574 287° West  Level Estimated
Tue 08:54:00 AM 60.2108 12.8393 286° West  Level Estimated
Tue 08:55:00 AM 60.2423 12.6208 286° West  Level Estimated
Tue 08:56:00 AM 60.2733 12.4019 286° West  Level Estimated
Tue 08:57:00 AM 60.3040 12.1826 286° West  Level Estimated
Tue 08:58:00 AM 60.3344 11.9628 286° West  Level Estimated
Tue 08:59:00 AM 60.3643 11.7427 285° West  Level Estimated
Tue 09:00:00 AM 60.3940 11.5221 285° West  Level Estimated
Tue 09:01:00 AM 60.4232 11.3012 285° West  Level Estimated
Tue 09:02:00 AM 60.4521 11.0798 285° West  Level Estimated
Tue 09:03:00 AM 60.4806 10.8581 285° West  Level Estimated
Tue 09:04:00 AM 60.5087 10.6360 285° West  Level Estimated
Tue 09:05:00 AM 60.5365 10.4134 284° West  Level Estimated
Tue 09:06:00 AM 60.5639 10.1905 284° West  Level Estimated
Tue 09:07:00 AM 60.5909 9.9673 284° West  Level Estimated
Tue 09:08:00 AM 60.6176 9.7436 284° West  Level Estimated
Tue 09:09:00 AM 60.6439 9.5196 284° West  Level Estimated
Tue 09:10:00 AM 60.6698 9.2953 283° West  Level Estimated
Tue 09:11:00 AM 60.6953 9.0705 283° West  Level Estimated
Tue 09:12:00 AM 60.7205 8.8455 283° West  Level Estimated
Tue 09:13:00 AM 60.7453 8.6200 283° West  Level Estimated
Tue 09:14:00 AM 60.7697 8.3942 283° West  Level Estimated
Tue 09:15:00 AM 60.7937 8.1681 282° West  Level Estimated
Tue 09:15:36 AM 60.6988 7.6130 282° West 439 505 36,000  Level FlightAware ADS-B (MEB / YMEN)
Tue 09:16:35 AM 60.7221 7.3715 281° West 440 506 36,000  Level FlightAware ADS-B (MEB / YMEN)
Tue 09:17:16 AM 60.7378 7.2062 281° West 438 504 36,000  Level FlightAware ADS-B (MEB / YMEN)
Tue 09:17:53 AM 60.7518 7.0564 281° West 438 504 36,000  Level FlightAware ADS-B (MEB / YMEN)
Tue 09:18:36 AM 60.7678 6.8835 281° West 437 503 36,000  Level FlightAware ADS-B (MEB / YMEN)
Tue 09:19:15 AM 60.7820 6.7271 281° West 437 503 36,000  Level FlightAware ADS-B (MEB / YMEN)
Tue 09:19:51 AM 60.7954 6.5786 280° West 436 502 36,000  Level FlightAware ADS-B (MEB / YMEN)
Tue 09:20:36 AM 60.8116 6.3963 280° West 436 502 36,000  Level FlightAware ADS-B (MEB / YMEN)
Tue 09:21:14 AM 60.8247 6.2441 280° West 435 501 36,000  Level FlightAware ADS-B (MEB / YMEN)
Tue 09:21:55 AM 60.8392 6.0755 280° West 435 501 36,000  Level FlightAware ADS-B (MEB / YMEN)
Tue 09:22:32 AM 60.8519 5.9261 280° West 434 499 36,000  Level FlightAware ADS-B (MEB / YMEN)
Tue 09:23:10 AM 60.8647 5.7733 280° West 435 501 36,000  Level FlightAware ADS-B (MEB / YMEN)
Tue 09:25:00 AM 60.9005 5.3541 280° West  Level Estimated
Tue 09:26:00 AM 60.9195 5.1251 280° West  Level Estimated
Tue 09:27:00 AM 60.9381 4.8958 280° West  Level Estimated
Tue 09:28:00 AM 60.9563 4.6662 279° West  Level Estimated
Tue 09:29:00 AM 60.9741 4.4364 279° West  Level Estimated
Tue 09:30:00 AM 60.9916 4.2063 279° West  Level Estimated
Tue 09:31:00 AM 61.0086 3.9760 279° West  Level Estimated
Tue 09:32:00 AM 61.0252 3.7454 279° West  Level Estimated
Tue 09:33:00 AM 61.0415 3.5146 278° West  Level Estimated
Tue 09:34:00 AM 61.0573 3.2835 278° West  Level Estimated
Tue 09:35:00 AM 61.0728 3.0522 278° West  Level Estimated
Tue 09:36:00 AM 61.0879 2.8207 278° West  Level Estimated
Tue 09:37:00 AM 61.1025 2.5890 278° West  Level Estimated
Tue 09:38:00 AM 61.1168 2.3571 277° West  Level Estimated
Tue 09:39:00 AM 61.1307 2.1249 277° West  Level Estimated
Tue 09:40:00 AM 61.1442 1.8926 277° West  Level Estimated
Tue 09:41:00 AM 61.1572 1.6600 277° West  Level Estimated
Tue 09:42:00 AM 61.1699 1.4273 277° West  Level Estimated
Tue 09:43:00 AM 61.1822 1.1944 276° West  Level Estimated
Tue 09:44:00 AM 61.1941 0.9613 276° West  Level Estimated
Tue 09:45:00 AM 61.2056 0.7280 276° West  Level Estimated
Tue 09:46:00 AM 61.2166 0.4946 276° West  Level Estimated
Tue 09:47:00 AM 61.2273 0.2610 276° West  Level Estimated
Tue 09:48:00 AM 61.2376 0.0273 275° West  Level Estimated
Tue 09:49:00 AM 61.2475 -0.2066 275° West  Level Estimated
Tue 09:50:00 AM 61.2569 -0.4407 275° West  Level Estimated
Tue 09:51:00 AM 61.2660 -0.6748 275° West  Level Estimated
Tue 09:52:00 AM 61.2747 -0.9092 275° West  Level Estimated
Tue 09:53:00 AM 61.2829 -1.1436 274° West  Level Estimated
Tue 09:54:00 AM 61.2908 -1.3781 274° West  Level Estimated
Tue 09:55:00 AM 61.2982 -1.6128 274° West  Level Estimated
Tue 09:56:00 AM 61.3053 -1.8476 274° West  Level Estimated
Tue 09:57:00 AM 61.3119 -2.0825 273° West  Level Estimated
Tue 09:58:00 AM 61.3181 -2.3175 273° West  Level Estimated
Tue 09:59:00 AM 61.3240 -2.5525 273° West  Level Estimated
Tue 10:00:00 AM 61.3294 -2.7877 273° West  Level Estimated
Tue 10:01:00 AM 61.3344 -3.0229 273° West  Level Estimated
Tue 10:02:00 AM 61.3390 -3.2582 272° West  Level Estimated
Tue 10:03:00 AM 61.3432 -3.4936 272° West  Level Estimated
Tue 10:04:00 AM 61.3470 -3.7290 272° West  Level Estimated
Tue 10:05:00 AM 61.3504 -3.9645 272° West  Level Estimated
Tue 10:06:00 AM 61.3534 -4.2000 272° West  Level Estimated
Tue 10:07:00 AM 61.3559 -4.4356 271° West  Level Estimated
Tue 10:08:00 AM 61.3581 -4.6712 271° West  Level Estimated
Tue 10:09:00 AM 61.3599 -4.9069 271° West  Level Estimated
Tue 10:10:00 AM 61.3612 -5.1425 271° West  Level Estimated
Tue 10:11:00 AM 61.3621 -5.3782 271° West  Level Estimated
Tue 10:12:00 AM 61.3627 -5.6139 270° West  Level Estimated
Tue 10:13:00 AM 61.3628 -5.8496 270° West  Level Estimated
Tue 10:14:00 AM 61.3625 -6.0853 270° West  Level Estimated
Tue 10:15:00 AM 61.3618 -6.3210 270° West  Level Estimated
Tue 10:16:00 AM 61.3607 -6.5567 270° West  Level Estimated
Tue 10:17:00 AM 61.3592 -6.7923 269° West  Level Estimated
Tue 10:18:00 AM 61.3573 -7.0280 269° West  Level Estimated
Tue 10:19:00 AM 61.3550 -7.2636 269° West  Level Estimated
Tue 10:20:00 AM 61.3523 -7.4991 269° West  Level Estimated
Tue 10:21:00 AM 61.3491 -7.7347 269° West  Level Estimated
Tue 10:22:00 AM 61.3456 -7.9701 268° West  Level Estimated
Tue 10:23:00 AM 61.3416 -8.2055 268° West  Level Estimated
Tue 10:24:00 AM 61.3373 -8.4409 268° West  Level Estimated
Tue 10:25:00 AM 61.3325 -8.6762 268° West  Level Estimated
Tue 10:26:00 AM 61.3274 -8.9114 267° West  Level Estimated
Tue 10:27:00 AM 61.3218 -9.1465 267° West  Level Estimated
Tue 10:28:00 AM 61.3158 -9.3815 267° West  Level Estimated
Tue 10:29:00 AM 61.3094 -9.6165 267° West  Level Estimated
Tue 10:30:00 AM 61.3026 -9.8513 267° West  Level Estimated
Tue 10:31:00 AM 61.2954 -10.0861 266° West  Level Estimated
Tue 10:32:00 AM 61.2878 -10.3207 266° West  Level Estimated
Tue 10:33:00 AM 61.2798 -10.5552 266° West  Level Estimated
Tue 10:34:00 AM 61.2714 -10.7896 266° West  Level Estimated
Tue 10:35:00 AM 61.2626 -11.0239 266° West  Level Estimated
Tue 10:36:00 AM 61.2533 -11.2580 265° West  Level Estimated
Tue 10:37:00 AM 61.2437 -11.4920 265° West  Level Estimated
Tue 10:38:00 AM 61.2337 -11.7258 265° West  Level Estimated
Tue 10:39:00 AM 61.2233 -11.9595 265° West  Level Estimated
Tue 10:40:00 AM 61.2124 -12.1930 265° West  Level Estimated
Tue 10:41:00 AM 61.2012 -12.4264 264° West  Level Estimated
Tue 10:42:00 AM 61.1896 -12.6596 264° West  Level Estimated
Tue 10:43:00 AM 61.1776 -12.8926 264° West  Level Estimated
Tue 10:44:00 AM 61.1651 -13.1255 264° West  Level Estimated
Tue 10:45:00 AM 61.1523 -13.3581 264° West  Level Estimated
Tue 10:46:00 AM 61.1391 -13.5906 263° West  Level Estimated
Tue 10:47:00 AM 61.1254 -13.8229 263° West  Level Estimated
Tue 10:48:00 AM 61.1114 -14.0549 263° West  Level Estimated
Tue 10:49:00 AM 61.0970 -14.2868 263° West  Level Estimated
Tue 10:50:00 AM 61.0821 -14.5184 263° West  Level Estimated
Tue 10:51:00 AM 61.0669 -14.7498 262° West  Level Estimated
Tue 10:52:00 AM 61.0513 -14.9810 262° West  Level Estimated
Tue 10:53:00 AM 61.0353 -15.2120 262° West  Level Estimated
Tue 10:54:00 AM 61.0189 -15.4427 262° West  Level Estimated
Tue 10:55:00 AM 61.0021 -15.6732 262° West  Level Estimated
Tue 10:56:00 AM 60.9849 -15.9035 261° West  Level Estimated
Tue 10:57:00 AM 60.9673 -16.1334 261° West  Level Estimated
Tue 10:58:00 AM 60.9494 -16.3632 261° West  Level Estimated
Tue 10:59:00 AM 60.9310 -16.5926 261° West  Level Estimated
Tue 11:00:00 AM 60.9123 -16.8218 261° West  Level Estimated
Tue 11:01:00 AM 60.8931 -17.0508 260° West  Level Estimated
Tue 11:02:00 AM 60.8736 -17.2794 260° West  Level Estimated
Tue 11:03:00 AM 60.8537 -17.5078 260° West  Level Estimated
Tue 11:04:00 AM 60.8334 -17.7359 260° West  Level Estimated
Tue 11:05:00 AM 60.8127 -17.9637 260° West  Level Estimated
Tue 11:06:00 AM 60.7916 -18.1912 259° West  Level Estimated
Tue 11:07:00 AM 60.7701 -18.4183 259° West  Level Estimated
Tue 11:08:00 AM 60.7483 -18.6452 259° West  Level Estimated
Tue 11:09:00 AM 60.7261 -18.8718 259° West  Level Estimated
Tue 11:10:00 AM 60.7035 -19.0981 259° West  Level Estimated
Tue 11:11:00 AM 60.6805 -19.3240 258° West  Level Estimated
Tue 11:12:00 AM 60.6571 -19.5496 258° West  Level Estimated
Tue 11:13:00 AM 60.6334 -19.7749 258° West  Level Estimated
Tue 11:14:00 AM 60.6092 -19.9998 258° West  Level Estimated
Tue 11:15:00 AM 60.5847 -20.2244 258° West  Level Estimated
Tue 11:16:00 AM 60.5598 -20.4487 257° West  Level Estimated
Tue 11:17:00 AM 60.5346 -20.6726 257° West  Level Estimated
Tue 11:18:00 AM 60.5090 -20.8962 257° West  Level Estimated
Tue 11:19:00 AM 60.4830 -21.1194 257° West  Level Estimated
Tue 11:20:00 AM 60.4566 -21.3423 257° West  Level Estimated
Tue 11:21:00 AM 60.4299 -21.5648 256° West  Level Estimated
Tue 11:22:00 AM 60.4027 -21.7869 256° West  Level Estimated
Tue 11:23:00 AM 60.3753 -22.0086 256° West  Level Estimated
Tue 11:24:00 AM 60.3474 -22.2300 256° West  Level Estimated
Tue 11:25:00 AM 60.3192 -22.4510 256° West  Level Estimated
Tue 11:26:00 AM 60.2906 -22.6716 255° West  Level Estimated
Tue 11:27:00 AM 60.2617 -22.8918 255° West  Level Estimated
Tue 11:28:00 AM 60.2324 -23.1117 255° West  Level Estimated
Tue 11:29:00 AM 60.2027 -23.3311 255° West  Level Estimated
Tue 11:30:00 AM 60.1726 -23.5501 255° West  Level Estimated
Tue 11:31:00 AM 60.1422 -23.7687 254° West  Level Estimated
Tue 11:32:00 AM 60.1115 -23.9870 254° West  Level Estimated
Tue 11:33:00 AM 60.0804 -24.2048 254° West  Level Estimated
Tue 11:34:00 AM 60.0489 -24.4222 254° West  Level Estimated
Tue 11:35:00 AM 60.0171 -24.6392 254° West  Level Estimated
Tue 11:36:00 AM 59.9849 -24.8557 254° West  Level Estimated
Tue 11:37:00 AM 59.9523 -25.0719 253° West  Level Estimated
Tue 11:38:00 AM 59.9194 -25.2876 253° West  Level Estimated
Tue 11:39:00 AM 59.8862 -25.5029 253° West  Level Estimated
Tue 11:40:00 AM 59.8526 -25.7177 253° West  Level Estimated
Tue 11:41:00 AM 59.8187 -25.9321 253° West  Level Estimated
Tue 11:42:00 AM 59.7844 -26.1461 252° West  Level Estimated
Tue 11:43:00 AM 59.7497 -26.3597 252° West  Level Estimated
Tue 11:44:00 AM 59.7148 -26.5728 252° West  Level Estimated
Tue 11:45:00 AM 59.6794 -26.7854 252° West  Level Estimated
Tue 11:46:00 AM 59.6438 -26.9976 252° West  Level Estimated
Tue 11:47:00 AM 59.6078 -27.2094 252° West  Level Estimated
Tue 11:48:00 AM 59.5714 -27.4206 251° West  Level Estimated
Tue 11:49:00 AM 59.5347 -27.6315 251° West  Level Estimated
Tue 11:50:00 AM 59.4977 -27.8418 251° West  Level Estimated
Tue 11:51:00 AM 59.4603 -28.0518 251° West  Level Estimated
Tue 11:52:00 AM 59.4226 -28.2612 251° West  Level Estimated
Tue 11:53:00 AM 59.3846 -28.4702 250° West  Level Estimated
Tue 11:54:00 AM 59.3462 -28.6787 250° West  Level Estimated
Tue 11:55:00 AM 59.3075 -28.8867 250° West  Level Estimated
Tue 11:56:00 AM 59.2685 -29.0942 250° West  Level Estimated
Tue 11:57:00 AM 59.2291 -29.3013 250° West  Level Estimated
Tue 11:58:00 AM 59.1894 -29.5079 250° West  Level Estimated
Tue 11:59:00 AM 59.1494 -29.7140 249° West  Level Estimated
Tue 12:00:00 PM 59.1091 -29.9197 249° West  Level Estimated
Tue 12:01:00 PM 59.0684 -30.1248 249° West  Level Estimated
Tue 12:02:00 PM 59.0274 -30.3295 249° West  Level Estimated
Tue 12:03:00 PM 58.9861 -30.5336 249° West  Level Estimated
Tue 12:04:00 PM 58.9445 -30.7373 248° West  Level Estimated
Tue 12:05:00 PM 58.9025 -30.9405 248° West  Level Estimated
Tue 12:06:00 PM 58.8602 -31.1432 248° West  Level Estimated
Tue 12:07:00 PM 58.8176 -31.3454 248° West  Level Estimated
Tue 12:08:00 PM 58.7747 -31.5471 248° West  Level Estimated
Tue 12:09:00 PM 58.7315 -31.7483 248° West  Level Estimated
Tue 12:10:00 PM 58.6880 -31.9490 247° West  Level Estimated
Tue 12:11:00 PM 58.6442 -32.1492 247° West  Level Estimated
Tue 12:12:00 PM 58.6000 -32.3489 247° West  Level Estimated
Tue 12:13:00 PM 58.5555 -32.5481 247° West  Level Estimated
Tue 12:14:00 PM 58.5108 -32.7468 247° West  Level Estimated
Tue 12:15:00 PM 58.4657 -32.9449 247° West  Level Estimated
Tue 12:16:00 PM 58.4203 -33.1426 246° West  Level Estimated
Tue 12:17:00 PM 58.3746 -33.3397 246° West  Level Estimated
Tue 12:18:00 PM 58.3287 -33.5364 246° West  Level Estimated
Tue 12:19:00 PM 58.2824 -33.7325 246° West  Level Estimated
Tue 12:20:00 PM 58.2358 -33.9281 246° West  Level Estimated
Tue 12:21:00 PM 58.1889 -34.1232 246° West  Level Estimated
Tue 12:22:00 PM 58.1417 -34.3178 245° Southwest  Level Estimated
Tue 12:23:00 PM 58.0943 -34.5119 245° Southwest  Level Estimated
Tue 12:24:00 PM 58.0465 -34.7054 245° Southwest  Level Estimated
Tue 12:25:00 PM 57.9984 -34.8985 245° Southwest  Level Estimated
Tue 12:26:00 PM 57.9501 -35.0910 245° Southwest  Level Estimated
Tue 12:27:00 PM 57.9014 -35.2830 245° Southwest  Level Estimated
Tue 12:28:00 PM 57.8525 -35.4744 244° Southwest  Level Estimated
Tue 12:29:00 PM 57.8033 -35.6654 244° Southwest  Level Estimated
Tue 12:30:00 PM 57.7538 -35.8558 244° Southwest  Level Estimated
Tue 12:31:00 PM 57.7040 -36.0457 244° Southwest  Level Estimated
Tue 12:32:00 PM 57.6539 -36.2351 244° Southwest  Level Estimated
Tue 12:33:00 PM 57.6036 -36.4240 244° Southwest  Level Estimated
Tue 12:34:00 PM 57.5529 -36.6123 243° Southwest  Level Estimated
Tue 12:35:00 PM 57.5020 -36.8001 243° Southwest  Level Estimated
Tue 12:36:00 PM 57.4508 -36.9874 243° Southwest  Level Estimated
Tue 12:37:00 PM 57.3993 -37.1742 243° Southwest  Level Estimated
Tue 12:37:00 PM 65.0000 -40.0000 261° West 429 494 36,000  Level ETMS Enhanced Traffic Management System
Tue 12:38:00 PM 57.3476 -37.3604 243° Southwest  Level Estimated
Tue 12:39:00 PM 57.2956 -37.5461 243° Southwest  Level Estimated
Tue 12:40:00 PM 57.2433 -37.7313 243° Southwest  Level Estimated
Tue 12:41:00 PM 57.1907 -37.9160 242° Southwest  Level Estimated
Tue 12:42:00 PM 57.1379 -38.1001 242° Southwest  Level Estimated
Tue 12:43:00 PM 64.5983 -44.9563 257° West 429 494 36,000  Level FlightAware Transoceanic
Tue 12:44:00 PM 64.5711 -45.2270 257° West 429 494 36,000  Level FlightAware Transoceanic
Tue 12:45:00 PM 64.5435 -45.4972 256° West 429 494 36,000  Level FlightAware Transoceanic
Tue 12:46:00 PM 64.5154 -45.7668 256° West 429 494 36,000  Level FlightAware Transoceanic
Tue 12:47:00 PM 64.4868 -46.0359 256° West 429 494 36,000  Level FlightAware Transoceanic
Tue 12:47:46 PM 65.0000 -40.0000 261° West 429 494 36,000  Level ETMS Enhanced Traffic Management System
Tue 12:48:00 PM 64.4577 -46.3044 256° West 429 494 36,000  Level FlightAware Transoceanic
Tue 12:49:00 PM 64.4281 -46.5724 256° West 429 494 36,000  Level FlightAware Transoceanic
Tue 12:50:00 PM 64.3981 -46.8397 255° West 429 494 36,000  Level FlightAware Transoceanic
Tue 12:51:00 PM 64.3675 -47.1065 255° West 429 494 36,000  Level FlightAware Transoceanic
Tue 12:52:00 PM 64.3365 -47.3727 255° West 429 494 36,000  Level FlightAware Transoceanic
Tue 12:53:00 PM 64.3050 -47.6382 255° West 429 494 36,000  Level FlightAware Transoceanic
Tue 12:54:00 PM 64.2730 -47.9032 254° West 429 494 36,000  Level FlightAware Transoceanic
Tue 12:55:00 PM 64.2405 -48.1675 254° West 429 494 36,000  Level FlightAware Transoceanic
Tue 12:56:00 PM 64.2076 -48.4312 254° West 429 494 36,000  Level FlightAware Transoceanic
Tue 12:57:00 PM 64.1742 -48.6943 254° West 429 494 36,000  Level FlightAware Transoceanic
Tue 12:58:00 PM 64.1403 -48.9567 253° West 429 494 36,000  Level FlightAware Transoceanic
Tue 12:59:00 PM 64.1059 -49.2185 253° West 429 494 36,000  Level FlightAware Transoceanic
Tue 01:00:00 PM 64.0711 -49.4797 253° West 429 494 36,000  Level FlightAware Transoceanic
Tue 01:01:00 PM 64.0358 -49.7402 253° West 429 494 36,000  Level FlightAware Transoceanic
Tue 01:02:00 PM 63.9536 -49.9169 223° Southwest  Level Estimated
Tue 01:03:00 PM 63.8712 -50.0925 223° Southwest  Level Estimated
Tue 01:04:00 PM 63.7885 -50.2672 223° Southwest  Level Estimated
Tue 01:05:00 PM 63.7057 -50.4408 223° Southwest  Level Estimated
Tue 01:06:00 PM 63.6226 -50.6134 223° Southwest  Level Estimated
Tue 01:07:00 PM 63.5394 -50.7850 223° Southwest  Level Estimated
Tue 01:08:00 PM 63.4559 -50.9556 222° Southwest  Level Estimated
Tue 01:09:00 PM 63.3723 -51.1252 222° Southwest  Level Estimated
Tue 01:10:00 PM 63.2884 -51.2939 222° Southwest  Level Estimated
Tue 01:11:00 PM 63.2044 -51.4615 222° Southwest  Level Estimated
Tue 01:12:00 PM 63.1201 -51.6282 222° Southwest  Level Estimated
Tue 01:13:00 PM 63.0357 -51.7939 222° Southwest  Level Estimated
Tue 01:14:00 PM 62.9510 -51.9586 222° Southwest  Level Estimated
Tue 01:15:00 PM 62.8662 -52.1224 221° Southwest  Level Estimated
Tue 01:16:00 PM 62.7812 -52.2853 221° Southwest  Level Estimated
Tue 01:17:00 PM 62.6960 -52.4472 221° Southwest  Level Estimated
Tue 01:18:00 PM 62.6106 -52.6082 221° Southwest  Level Estimated
Tue 01:19:00 PM 62.5250 -52.7682 221° Southwest  Level Estimated
Tue 01:20:00 PM 62.4393 -52.9274 221° Southwest  Level Estimated
Tue 01:21:00 PM 62.3533 -53.0856 221° Southwest  Level Estimated
Tue 01:22:00 PM 62.2672 -53.2429 220° Southwest  Level Estimated
Tue 01:23:00 PM 62.1809 -53.3994 220° Southwest  Level Estimated
Tue 01:24:00 PM 62.0944 -53.5549 220° Southwest  Level Estimated
Tue 01:25:00 PM 62.0078 -53.7095 220° Southwest  Level Estimated
Tue 01:26:00 PM 61.9210 -53.8633 220° Southwest  Level Estimated
Tue 01:27:00 PM 61.8340 -54.0162 220° Southwest  Level Estimated
Tue 01:28:00 PM 61.7460 -54.1697 220° Southwest  Level Estimated
Tue 01:29:00 PM 61.6579 -54.3223 219° Southwest  Level Estimated
Tue 01:30:00 PM 61.5696 -54.4740 219° Southwest  Level Estimated
Tue 01:31:00 PM 61.4811 -54.6249 219° Southwest  Level Estimated
Tue 01:32:00 PM 61.3924 -54.7749 219° Southwest  Level Estimated
Tue 01:33:00 PM 61.3036 -54.9241 219° Southwest  Level Estimated
Tue 01:34:00 PM 61.2146 -55.0724 219° Southwest  Level Estimated
Tue 01:35:00 PM 61.1255 -55.2199 219° Southwest  Level Estimated
Tue 01:36:00 PM 61.0362 -55.3665 219° Southwest  Level Estimated
Tue 01:37:00 PM 60.9467 -55.5123 218° Southwest  Level Estimated
Tue 01:38:00 PM 60.8571 -55.6573 218° Southwest  Level Estimated
Tue 01:39:00 PM 60.7673 -55.8016 218° Southwest  Level Estimated
Tue 01:40:00 PM 60.6774 -55.9449 218° Southwest  Level Estimated
Tue 01:40:18 PM 62.2167 -59.1500 217° Southwest 360 414 36,000  Level Gander Center
Tue 01:41:00 PM 60.5873 -56.0875 218° Southwest  Level Estimated
Tue 01:41:18 PM 62.1667 -59.4000 247° West 440 506 36,000  Level Gander Center
Tue 01:42:00 PM 60.4971 -56.2293 218° Southwest  Level Estimated
Tue 01:42:18 PM 62.1000 -59.6167 237° Southwest 430 495 36,000  Level Gander Center
Tue 01:43:00 PM 60.4067 -56.3703 218° Southwest  Level Estimated
Tue 01:43:18 PM 62.0500 -59.8333 244° Southwest 430 495 36,000  Level Gander Center
Tue 01:44:00 PM 60.3162 -56.5106 218° Southwest  Level Estimated
Tue 01:44:18 PM 61.9667 -60.0500 231° Southwest 430 495 36,000  Level Gander Center
Tue 01:45:00 PM 60.2255 -56.6500 217° Southwest  Level Estimated
Tue 01:45:18 PM 61.8833 -60.2333 226° Southwest 420 483 36,000  Level Gander Center
Tue 01:46:18 PM 61.7833 -60.3667 212° Southwest 420 483 36,000  Level Gander Center
Tue 01:47:19 PM 61.7000 -60.4833 214° Southwest 420 483 36,000  Level Montreal Center
Tue 01:48:19 PM 61.6167 -60.6667 226° Southwest 430 495 36,000  Level Montreal Center
Tue 01:49:19 PM 61.5333 -60.8167 221° Southwest 430 495 36,000  Level Montreal Center
Tue 01:50:19 PM 61.4500 -61.0000 226° Southwest 420 483 36,000  Level Montreal Center
Tue 01:51:19 PM 61.3500 -61.1500 216° Southwest 420 483 36,000  Level Montreal Center
Tue 01:52:19 PM 61.2667 -61.3000 221° Southwest 420 483 36,000  Level Montreal Center
Tue 01:53:18 PM 61.1833 -61.5167 231° Southwest 420 483 36,000  Level Gander Center
Tue 01:54:18 PM 61.1000 -61.6667 221° Southwest 420 483 36,000  Level Gander Center
Tue 01:55:19 PM 61.0000 -61.7667 206° Southwest 420 483 36,000  Level Montreal Center
Tue 01:56:19 PM 60.9167 -61.9000 218° Southwest 420 483 36,000  Level Montreal Center
Tue 01:57:18 PM 60.8333 -62.1333 234° Southwest 420 483 36,000  Level Gander Center
Tue 01:58:18 PM 60.7500 -62.2667 218° Southwest 420 483 36,000  Level Gander Center
Tue 01:59:18 PM 60.6500 -62.4667 224° Southwest 420 483 36,000  Level Gander Center
Tue 02:00:18 PM 60.6000 -62.6333 239° Southwest 410 472 36,000  Level Gander Center
Tue 02:01:18 PM 60.5333 -62.8667 240° Southwest 420 483 36,000  Level Gander Center
Tue 02:02:18 PM 60.4833 -63.0667 243° Southwest 430 495 36,000  Level Gander Center
Tue 02:03:18 PM 60.4500 -63.3333 256° West 430 495 36,000  Level Gander Center
Tue 02:04:18 PM 60.4167 -63.5333 251° West 430 495 36,000  Level Gander Center
Tue 02:05:18 PM 60.3667 -63.7667 247° West 430 495 36,000  Level Gander Center
Tue 02:06:18 PM 60.3167 -64.0000 247° West 430 495 36,000  Level Gander Center
Tue 02:07:18 PM 60.2833 -64.2333 254° West 430 495 36,000  Level Gander Center
Tue 02:08:19 PM 60.2500 -64.3833 246° West 420 483 36,000  Level Montreal Center
Tue 02:09:19 PM 60.2000 -64.6000 245° Southwest 430 495 36,000  Level Montreal Center
Tue 02:10:19 PM 60.1500 -64.8333 247° West 430 495 36,000  Level Montreal Center
Tue 02:11:19 PM 60.1000 -65.0500 245° Southwest 420 483 36,000  Level Montreal Center
Tue 02:12:19 PM 60.0333 -65.2000 228° Southwest 420 483 36,000  Level Montreal Center
Tue 02:13:19 PM 59.9333 -65.3667 220° Southwest 420 483 36,000  Level Montreal Center
Tue 02:14:19 PM 59.8500 -65.5333 225° Southwest 420 483 36,000  Level Montreal Center
Tue 02:15:19 PM 59.7667 -65.7000 225° Southwest 420 483 36,000  Level Montreal Center
Tue 02:16:19 PM 59.6667 -65.8500 217° Southwest 420 483 36,000  Level Montreal Center
Tue 02:17:19 PM 59.5833 -66.0167 225° Southwest 420 483 36,000  Level Montreal Center
Tue 02:18:19 PM 59.5000 -66.1333 215° Southwest 420 483 36,000  Level Montreal Center
Tue 02:19:19 PM 59.4167 -66.3000 226° Southwest 420 483 36,000  Level Montreal Center
Tue 02:20:18 PM 59.3167 -66.5000 226° Southwest 420 483 36,000  Level Gander Center
Tue 02:21:18 PM 59.2333 -66.6500 223° Southwest 420 483 36,000  Level Gander Center
Tue 02:22:18 PM 59.1333 -66.8000 218° Southwest 420 483 36,000  Level Gander Center
Tue 02:23:19 PM 59.0500 -66.8833 207° Southwest 420 483 36,000  Level Montreal Center
Tue 02:24:19 PM 58.9667 -67.0500 226° Southwest 420 483 36,000  Level Montreal Center
Tue 02:25:18 PM 58.8667 -67.2500 226° Southwest 430 495 36,000  Level Gander Center
Tue 02:26:18 PM 58.7833 -67.4000 223° Southwest 430 495 36,000  Level Gander Center
Tue 02:27:18 PM 58.7000 -67.5000 212° Southwest 420 483 36,000  Level Gander Center
Tue 02:28:18 PM 58.6000 -67.6833 224° Southwest 420 483 36,000  Level Gander Center
Tue 02:29:18 PM 58.5167 -67.8333 223° Southwest 420 483 36,000  Level Gander Center
Tue 02:30:19 PM 58.4167 -67.8833 195° South 420 483 36,000  Level Montreal Center
Tue 02:31:19 PM 58.3333 -68.0333 223° Southwest 420 483 36,000  Level Montreal Center
Tue 02:32:19 PM 58.2333 -68.1833 218° Southwest 430 495 36,000  Level Montreal Center
Tue 02:33:19 PM 58.1000 -68.4167 223° Southwest 450 518 36,000  Level Montreal Center
Tue 02:34:29 PM 58.0333 -68.4833 208° Southwest 450 518 36,000  Level Montreal Center
Tue 02:35:29 PM 57.9500 -68.6000 217° Southwest 430 495 36,000  Level Montreal Center
Tue 02:36:29 PM 57.8500 -68.7500 219° Southwest 430 495 36,000  Level Montreal Center
Tue 02:37:29 PM 57.7500 -68.8667 212° Southwest 420 483 36,000  Level Montreal Center
Tue 02:38:29 PM 57.6667 -69.0000 221° Southwest 420 483 36,000  Level Montreal Center
Tue 02:39:29 PM 57.5667 -69.1167 212° Southwest 420 483 36,000  Level Montreal Center
Tue 02:40:29 PM 57.4667 -69.2667 219° Southwest 420 483 36,000  Level Montreal Center
Tue 02:41:29 PM 57.3833 -69.3667 213° Southwest 420 483 36,000  Level Montreal Center
Tue 02:42:29 PM 57.2833 -69.5167 219° Southwest 420 483 36,000  Level Montreal Center
Tue 02:43:29 PM 57.1833 -69.6167 208° Southwest 420 483 36,000  Level Montreal Center
Tue 02:44:29 PM 57.1000 -69.7667 224° Southwest 420 483 36,000  Level Montreal Center
Tue 02:45:29 PM 56.9833 -69.8667 205° Southwest 420 483 36,000  Level Montreal Center
Tue 02:46:29 PM 56.8833 -70.0167 219° Southwest 420 483 36,000  Level Montreal Center
Tue 02:47:29 PM 56.7833 -70.1500 216° Southwest 420 483 36,000  Level Montreal Center
Tue 02:48:29 PM 56.7000 -70.2500 213° Southwest 420 483 36,000  Level Montreal Center
Tue 02:49:29 PM 56.6000 -70.4000 220° Southwest 420 483 36,000  Level Montreal Center
Tue 02:50:29 PM 56.5000 -70.5000 209° Southwest 430 495 36,000  Level Montreal Center
Tue 02:51:29 PM 56.4000 -70.6333 216° Southwest 420 483 36,000  Level Montreal Center
Tue 02:52:29 PM 56.3167 -70.7333 214° Southwest 420 483 36,000  Level Montreal Center
Tue 02:53:29 PM 56.2167 -70.8500 213° Southwest 420 483 36,000  Level Montreal Center
Tue 02:54:29 PM 56.1000 -70.9833 213° Southwest 420 483 36,000  Level Montreal Center
Tue 02:55:29 PM 56.0000 -71.1167 217° Southwest 420 483 36,000  Level Montreal Center
Tue 02:56:29 PM 55.9167 -71.2167 214° Southwest 420 483 36,000  Level Montreal Center
Tue 02:57:29 PM 55.8333 -71.3167 214° Southwest 420 483 36,000  Level Montreal Center
Tue 02:58:29 PM 55.7333 -71.4500 217° Southwest 410 472 36,000  Level Montreal Center
Tue 02:59:29 PM 55.6333 -71.5500 209° Southwest 410 472 36,000  Level Montreal Center
Tue 03:00:29 PM 55.5333 -71.6833 217° Southwest 420 483 36,000  Level Montreal Center
Tue 03:01:29 PM 55.4333 -71.7833 210° Southwest 410 472 36,000  Level Montreal Center
Tue 03:02:29 PM 55.3500 -71.9000 219° Southwest 410 472 36,000  Level Montreal Center
Tue 03:03:29 PM 55.2500 -72.0000 210° Southwest 410 472 36,000  Level Montreal Center
Tue 03:04:29 PM 55.1500 -72.1333 217° Southwest 420 483 36,000  Level Montreal Center
Tue 03:05:29 PM 55.0500 -72.2333 210° Southwest 420 483 36,000  Level Montreal Center
Tue 03:06:29 PM 54.9500 -72.3333 210° Southwest 420 483 36,000  Level Montreal Center
Tue 03:07:29 PM 54.8333 -72.4500 210° Southwest 420 483 36,000  Level Montreal Center
Tue 03:08:29 PM 54.7333 -72.5833 218° Southwest 420 483 36,000  Level Montreal Center
Tue 03:09:29 PM 54.6500 -72.6667 210° Southwest 420 483 36,000  Level Montreal Center
Tue 03:10:29 PM 54.5500 -72.8000 218° Southwest 420 483 36,000  Level Montreal Center
Tue 03:11:29 PM 54.4500 -72.9000 210° Southwest 420 483 36,000  Level Montreal Center
Tue 03:12:29 PM 54.3500 -73.0167 214° Southwest 420 483 36,000  Level Montreal Center
Tue 03:13:29 PM 54.2500 -73.1167 210° Southwest 420 483 36,000  Level Montreal Center
Tue 03:14:29 PM 54.1500 -73.2000 206° Southwest 420 483 36,000  Level Montreal Center
Tue 03:15:29 PM 54.0500 -73.3167 214° Southwest 420 483 36,000  Level Montreal Center
Tue 03:16:29 PM 53.9500 -73.4167 210° Southwest 420 483 36,000  Level Montreal Center
Tue 03:17:29 PM 53.8500 -73.5333 215° Southwest 420 483 36,000  Level Montreal Center
Tue 03:18:29 PM 53.7500 -73.6333 211° Southwest 410 472 36,000  Level Montreal Center
Tue 03:19:29 PM 53.6500 -73.7167 206° Southwest 410 472 36,000  Level Montreal Center
Tue 03:20:29 PM 53.5500 -73.8167 211° Southwest 410 472 36,000  Level Montreal Center
Tue 03:21:29 PM 53.4500 -73.9000 206° Southwest 410 472 36,000  Level Montreal Center
Tue 03:22:29 PM 53.3333 -73.9833 203° Southwest 410 472 36,000  Level Montreal Center
Tue 03:23:29 PM 53.2333 -74.0833 211° Southwest 410 472 36,000  Level Montreal Center
Tue 03:24:29 PM 53.1333 -74.1667 207° Southwest 410 472 36,000  Level Montreal Center
Tue 03:25:29 PM 53.0333 -74.2500 207° Southwest 420 483 36,000  Level Montreal Center
Tue 03:26:29 PM 52.9500 -74.3500 216° Southwest 420 483 36,000  Level Montreal Center
Tue 03:27:29 PM 52.8333 -74.4333 203° Southwest 410 472 36,000  Level Montreal Center
Tue 03:28:29 PM 52.7333 -74.5167 207° Southwest 410 472 36,000  Level Montreal Center
Tue 03:29:29 PM 52.6333 -74.6000 207° Southwest 410 472 36,000  Level Montreal Center
Tue 03:30:29 PM 52.5333 -74.6833 207° Southwest 410 472 36,000  Level Montreal Center
Tue 03:31:29 PM 52.4167 -74.7500 199° South 410 472 36,000  Level Montreal Center
Tue 03:32:29 PM 52.3167 -74.8333 207° Southwest 400 460 36,000  Level Montreal Center
Tue 03:33:29 PM 52.2000 -74.9167 204° Southwest 410 472 36,000  Level Montreal Center
Tue 03:34:29 PM 52.1000 -75.0000 207° Southwest 410 472 36,000  Level Montreal Center
Tue 03:35:29 PM 52.0000 -75.0833 207° Southwest 440 506 36,000  Level Montreal Center
Tue 03:36:29 PM 51.9000 -75.1667 207° Southwest 410 472 36,000  Level Montreal Center
Tue 03:37:29 PM 51.7833 -75.2500 204° Southwest 410 472 36,000  Level Montreal Center
Tue 03:38:29 PM 51.6833 -75.3333 207° Southwest 410 472 36,000  Level Montreal Center
Tue 03:39:29 PM 51.5833 -75.4167 207° Southwest 410 472 36,000  Level Montreal Center
Tue 03:40:29 PM 51.4833 -75.4833 203° Southwest 410 472 36,000  Level Montreal Center
Tue 03:41:29 PM 51.3667 -75.5667 204° Southwest 410 472 36,000  Level Montreal Center
Tue 03:42:29 PM 51.2667 -75.6500 208° Southwest 410 472 36,000  Level Montreal Center
Tue 03:43:29 PM 51.1667 -75.7167 203° Southwest 410 472 36,000  Level Montreal Center
Tue 03:44:29 PM 51.0667 -75.8000 208° Southwest 410 472 36,000  Level Montreal Center
Tue 03:45:29 PM 50.9667 -75.8833 208° Southwest 410 472 36,000  Level Montreal Center
Tue 03:46:29 PM 50.8667 -75.9667 208° Southwest 410 472 36,000  Level Montreal Center
Tue 03:47:29 PM 50.7667 -76.0167 198° South 410 472 36,000  Level Montreal Center
Tue 03:48:29 PM 50.6500 -76.1000 204° Southwest 410 472 36,000  Level Montreal Center
Tue 03:49:29 PM 50.5500 -76.1833 208° Southwest 410 472 36,000  Level Montreal Center
Tue 03:50:29 PM 50.4500 -76.2500 203° Southwest 410 472 36,000  Level Montreal Center
Tue 03:51:29 PM 50.3500 -76.3333 208° Southwest 410 472 36,000  Level Montreal Center
Tue 03:52:29 PM 50.2333 -76.4167 205° Southwest 410 472 36,000  Level Montreal Center
Tue 03:53:29 PM 50.1500 -76.4833 207° Southwest 410 472 36,000  Level Montreal Center
Tue 03:54:29 PM 50.0167 -76.5667 202° Southwest 410 472 36,000  Level Montreal Center
Tue 03:55:29 PM 49.9167 -76.6167 198° South 410 472 36,000  Level Montreal Center
Tue 03:56:29 PM 49.8167 -76.7000 208° Southwest 410 472 36,000  Level Montreal Center
Tue 03:57:29 PM 49.7167 -76.7667 203° Southwest 410 472 36,000  Level Montreal Center
Tue 03:58:29 PM 49.6167 -76.8500 208° Southwest 410 472 36,000  Level Montreal Center
Tue 03:59:29 PM 49.5167 -76.9167 203° Southwest 390 449 36,000  Level Montreal Center
Tue 04:00:29 PM 49.4000 -77.0000 205° Southwest 430 495 36,000  Level Montreal Center
Tue 04:01:29 PM 49.3000 -77.0667 204° Southwest 410 472 36,000  Level Montreal Center
Tue 04:02:29 PM 49.2000 -77.1167 198° South 390 449 36,000  Level Montreal Center
Tue 04:03:29 PM 49.1000 -77.2000 209° Southwest 410 472 36,000  Level Montreal Center
Tue 04:04:29 PM 49.0000 -77.2667 204° Southwest 410 472 36,000  Level Montreal Center
Tue 04:05:29 PM 48.8667 -77.3500 202° Southwest 410 472 36,000  Level Montreal Center
Tue 04:06:29 PM 48.7667 -77.4167 204° Southwest 400 460 36,000  Level Montreal Center
Tue 04:07:29 PM 48.6833 -77.5000 213° Southwest 400 460 36,000  Level Montreal Center
Tue 04:08:29 PM 48.5667 -77.5667 201° Southwest 410 472 36,000  Level Montreal Center
Tue 04:09:29 PM 48.4667 -77.6333 204° Southwest 410 472 36,000  Level Montreal Center
Tue 04:10:29 PM 48.3667 -77.7167 209° Southwest 410 472 36,000  Level Montreal Center
Tue 04:11:29 PM 48.2667 -77.7667 198° South 410 472 36,000  Level Montreal Center
Tue 04:12:29 PM 48.1667 -77.8333 204° Southwest 410 472 36,000  Level Montreal Center
Tue 04:13:29 PM 48.0500 -77.9000 201° Southwest 410 472 36,000  Level Montreal Center
Tue 04:14:29 PM 47.9333 -77.9500 196° South 410 472 36,000  Level Montreal Center
Tue 04:15:29 PM 47.8333 -78.0167 204° Southwest 410 472 36,000  Level Montreal Center
Tue 04:16:29 PM 47.7333 -78.0833 204° Southwest 400 460 36,000  Level Montreal Center
Tue 04:17:29 PM 47.6167 -78.1333 196° South 410 472 36,000  Level Montreal Center
Tue 04:18:29 PM 47.5167 -78.2000 204° Southwest 410 472 36,000  Level Montreal Center
Tue 04:19:29 PM 47.4167 -78.2667 204° Southwest 410 472 36,000  Level Montreal Center
Tue 04:20:29 PM 47.3167 -78.3167 199° South 400 460 36,000  Level Montreal Center
Tue 04:21:29 PM 47.2167 -78.3833 204° Southwest 400 460 36,000  Level Montreal Center
Tue 04:22:29 PM 47.0833 -78.4500 199° South 410 472 36,000  Level Montreal Center
Tue 04:23:29 PM 46.9833 -78.5000 199° South 410 472 36,000  Level Montreal Center
Tue 04:24:29 PM 46.8833 -78.5667 205° Southwest 410 472 36,000  Level Montreal Center
Tue 04:25:29 PM 46.7667 -78.6167 196° South 410 472 36,000  Level Montreal Center
Tue 04:26:29 PM 46.6667 -78.6833 205° Southwest 410 472 36,000  Level Montreal Center
Tue 04:27:29 PM 46.5667 -78.7500 205° Southwest 410 472 36,000  Level Montreal Center
Tue 04:28:29 PM 46.4667 -78.8000 199° South 410 472 36,000  Level Montreal Center
Tue 04:29:29 PM 46.3500 -78.8667 202° Southwest 410 472 36,000  Level Montreal Center
Tue 04:30:29 PM 46.2333 -78.9333 202° Southwest 420 483 36,000  Level Montreal Center
Tue 04:31:29 PM 46.1333 -79.0000 205° Southwest 410 472 36,000  Level Montreal Center
Tue 04:32:29 PM 46.0167 -79.0333 191° South 420 483 36,000  Level Montreal Center
Tue 04:33:29 PM 45.9167 -79.1000 205° Southwest 420 483 36,000  Level Montreal Center
Tue 04:34:29 PM 45.8000 -79.1667 202° Southwest 420 483 36,000  Level Montreal Center
Tue 04:35:29 PM 45.7000 -79.2000 193° South 420 483 36,000  Level Montreal Center
Tue 04:36:29 PM 45.5833 -79.2667 202° Southwest 420 483 36,000  Level Montreal Center
Tue 04:37:29 PM 45.4667 -79.3333 202° Southwest 420 483 36,000  Level Montreal Center
Tue 04:38:28 PM 45.3500 -79.4000 202° Southwest 420 483 36,000  Level Montreal Center
Tue 04:39:28 PM 45.2500 -79.4500 199° South 420 483 36,000  Level Montreal Center
Tue 04:40:28 PM 45.1500 -79.5000 199° South 410 472 36,000  Level Montreal Center
Tue 04:41:28 PM 45.0500 -79.5500 199° South 410 472 36,000  Level Montreal Center
Tue 04:42:52 PM 44.8833 -79.6167 196° South 420 483 36,000  Level Toronto Center
Tue 04:48:27 PM 44.3442 -80.0075 196° South 385 443 36,000  Level FlightAware ADS-B
Tue 04:49:06 PM 44.2855 -80.0601 213° Southwest 384 442 36,000  Level FlightAware ADS-B
Tue 04:49:47 PM 44.2258 -80.1134 213° Southwest 384 442 36,000  Level FlightAware ADS-B
Tue 04:50:27 PM 44.1842 -80.1506 213° Southwest 387 445 36,000  Level FlightAware ADS-B
Tue 04:51:07 PM 44.1134 -80.2136 213° Southwest 390 449 36,000  Level FlightAware ADS-B
Tue 04:51:47 PM 44.0468 -80.2727 213° Southwest 390 449 36,000  Level FlightAware ADS-B
Tue 04:52:27 PM 43.9750 -80.3362 212° Southwest 390 449 36,000  Level FlightAware ADS-B
Tue 04:53:07 PM 43.9196 -80.3851 212° Southwest 391 450 36,000  Level FlightAware ADS-B
Tue 04:53:47 PM 43.8701 -80.4287 212° Southwest 393 452 36,000  Level FlightAware ADS-B
Tue 04:54:18 PM 43.8037 -80.4871 212° Southwest 395 455 36,000  Level FlightAware ADS-B (EHLW)
Tue 04:54:52 PM 43.7813 -80.5068 212° Southwest 395 455 36,000  Level FlightAware ADS-B (EHLW)
Tue 04:55:27 PM 43.7117 -80.5677 212° Southwest 396 456 36,000  Level FlightAware ADS-B
Tue 04:55:58 PM 43.6501 -80.6215 212° Southwest 395 455 36,000  Level FlightAware ADS-B (EHLW)
Tue 04:56:38 PM 43.5919 -80.6720 212° Southwest 394 453 36,000  Level FlightAware ADS-B (EHLW)
Tue 04:57:08 PM 43.5452 -80.7127 212° Southwest 393 452 36,000  Level FlightAware ADS-B
Tue 04:57:47 PM 43.4860 -80.7641 212° Southwest 392 451 36,000  Level FlightAware ADS-B
Tue 04:58:27 PM 43.4370 -80.8064 212° Southwest 392 451 36,000  Level FlightAware ADS-B
Tue 04:59:07 PM 43.3736 -80.8611 212° Southwest 394 453 36,000  Level FlightAware ADS-B
Tue 04:59:47 PM 43.3152 -80.9117 212° Southwest 394 453 36,000  Level FlightAware ADS-B
Tue 05:00:28 PM 43.2404 -80.9759 212° Southwest 395 455 36,000  Level FlightAware ADS-B
Tue 05:01:07 PM 43.1985 -81.0118 212° Southwest 395 455 36,000  Level FlightAware ADS-B
Tue 05:01:41 PM 43.1539 -81.0499 212° Southwest 392 451 36,000  Level FlightAware ADS-B
Tue 05:02:28 PM 43.1539 -81.0499 212° Southwest 391 450 36,000  Level FlightAware ADS-B
Tue 05:03:27 PM 42.9760 -81.1863 209° Southwest 401 461 36,000  Level FlightAware ADS-B
Tue 05:05:07 PM 42.8158 -81.2862 205° Southwest 399 459 36,000  Level FlightAware ADS-B
Tue 05:06:07 PM 42.6949 -81.3605 204° Southwest 393 452 36,000  Level FlightAware ADS-B
Tue 05:07:27 PM 42.5572 -81.4447 204° Southwest 387 445 36,000  Level FlightAware ADS-B
Tue 05:08:07 PM 42.4956 -81.4822 204° Southwest 385 443 36,000  Level FlightAware ADS-B
Tue 05:08:47 PM 42.4432 -81.5141 204° Southwest 384 442 36,000  Level FlightAware ADS-B
Tue 05:09:52 PM 42.3167 -81.5667 204° Southwest 380 437 36,000  Level Toronto Center
Tue 05:10:52 PM 42.2167 -81.6333 206° Southwest 380 437 36,000  Level Toronto Center
Tue 05:11:52 PM 42.1333 -81.6833 204° Southwest 380 437 36,000  Level Toronto Center
Tue 05:12:52 PM 42.0333 -81.7500 206° Southwest 380 437 36,000  Level Toronto Center
Tue 05:13:22 PM 41.9864 -81.7897 212° Southwest 377 434 36,000  Level Cleveland Center
Tue 05:14:24 PM 41.8919 -81.8461 204° Southwest 370 426 36,000  Level Cleveland Center
Tue 05:15:26 PM 41.7964 -81.9031 204° Southwest 373 429 36,000  Level Cleveland Center
Tue 05:16:28 PM 41.7000 -81.9597 204° Southwest 376 433 36,000  Level Cleveland Center
Tue 05:17:30 PM 41.6047 -82.0164 204° Southwest 375 432 36,000  Level Cleveland Center
Tue 05:18:32 PM 41.5086 -82.0728 204° Southwest 377 434 36,000  Level Cleveland Center
Tue 05:19:34 PM 41.3989 -82.1364 204° Southwest 369 425 36,000  Level Cleveland Center
Tue 05:20:36 PM 41.2992 -82.1825 199° South 383 441 36,000  Level Cleveland Center
Tue 05:21:38 PM 41.1936 -82.2197 195° South 391 450 36,000  Level Cleveland Center
Tue 05:22:40 PM 41.0867 -82.2575 195° South 394 453 36,000  Level Cleveland Center
Tue 05:23:42 PM 40.9797 -82.2944 195° South 395 455 36,000  Level Cleveland Center
Tue 05:24:45 PM 40.8564 -82.3389 195° South 392 451 36,000  Level Cleveland Center
Tue 05:25:47 PM 40.7497 -82.3769 195° South 392 451 36,000  Level Cleveland Center
Tue 05:26:49 PM 40.6436 -82.4147 195° South 392 451 36,000  Level Cleveland Center
Tue 05:27:51 PM 40.5311 -82.4539 195° South 389 448 36,000  Level Cleveland Center
Tue 05:34:02 PM 40.1352 -82.5879 195° South 414 476 36,000  Level FlightAware ADS-B
Tue 05:35:43 PM 39.6784 -82.6205 183° South 410 472 36,000  Level FlightAware ADS-B
Tue 05:36:23 PM 39.5949 -82.6261 183° South 408 470 36,000  Level FlightAware ADS-B
Tue 05:37:02 PM 39.5212 -82.6310 183° South 405 466 36,000  Level FlightAware ADS-B
Tue 05:37:43 PM 39.4443 -82.6361 183° South 405 466 36,000  Level FlightAware ADS-B
Tue 05:38:21 PM 39.3843 -82.6402 183° South 407 468 36,000  Level FlightAware ADS-B
Tue 05:39:04 PM 39.2965 -82.6460 183° South 405 466 36,000  Level FlightAware ADS-B
Tue 05:39:44 PM 39.2222 -82.6509 183° South 403 464 36,000  Level FlightAware ADS-B
Tue 05:40:24 PM 39.1525 -82.6556 183° South 404 465 36,000  Level FlightAware ADS-B
Tue 05:41:03 PM 39.0852 -82.6601 183° South 399 459 36,000  Level FlightAware ADS-B
Tue 05:41:43 PM 38.9983 -82.6658 183° South 397 457 36,000  Level FlightAware ADS-B
Tue 05:42:24 PM 38.9227 -82.6708 183° South 399 459 36,000  Level FlightAware ADS-B
Tue 05:43:03 PM 38.8541 -82.6837 188° South 374 430 36,000  Level FlightAware ADS-B
Tue 05:43:42 PM 38.7891 -82.7060 195° South 366 421 36,000  Level FlightAware ADS-B
Tue 05:44:38 PM 38.7026 -82.7351 195° South 360 414 36,000  Level FlightAware ADS-B
Tue 05:45:43 PM 38.5994 -82.7636 195° South 365 420 36,000  Level Indianapolis Center
Tue 05:46:45 PM 38.4892 -82.7567 177° South 391 450 36,000  Level Indianapolis Center
Tue 05:47:47 PM 38.3797 -82.7597 181° South 393 452 36,000  Level Indianapolis Center
Tue 05:48:50 PM 38.2700 -82.7617 181° South 392 451 36,000  Level Indianapolis Center
Tue 05:49:53 PM 38.1439 -82.7622 180° South 389 448 36,000  Level Indianapolis Center
Tue 05:50:54 PM 38.0367 -82.7622 180° South 386 444 36,000  Level Indianapolis Center
Tue 05:51:56 PM 37.9283 -82.7628 180° South 386 444 36,000  Level Indianapolis Center
Tue 05:52:58 PM 37.8211 -82.7644 181° South 384 442 36,000  Level Indianapolis Center
Tue 05:54:00 PM 37.7128 -82.7669 181° South 389 448 36,000  Level Indianapolis Center
Tue 05:55:02 PM 37.5989 -82.8058 195° South 360 414 36,000  Level Indianapolis Center
Tue 05:56:04 PM 37.5133 -82.8589 206° Southwest 344 396 36,000  Level Indianapolis Center
Tue 05:57:06 PM 37.4286 -82.9158 208° Southwest 346 398 36,000  Level Indianapolis Center
Tue 05:58:08 PM 37.3433 -82.9722 208° Southwest 346 398 36,000  Level Indianapolis Center
Tue 05:59:10 PM 37.2581 -83.0283 208° Southwest 346 398 36,000  Level Indianapolis Center
Tue 06:00:12 PM 37.1733 -83.0831 207° Southwest 345 397 36,000  Level Indianapolis Center
Tue 06:01:14 PM 37.0742 -83.1486 208° Southwest 347 399 36,000  Level Indianapolis Center
Tue 06:02:16 PM 36.9892 -83.2028 207° Southwest 345 397 36,000  Level Indianapolis Center
Tue 06:03:18 PM 36.9039 -83.2583 208° Southwest 347 399 36,000  Level Indianapolis Center
Tue 06:04:20 PM 36.8186 -83.3139 208° Southwest 348 400 36,000  Level Indianapolis Center
Tue 06:05:22 PM 36.7186 -83.3767 207° Southwest 347 399 36,000  Level Indianapolis Center
Tue 06:06:24 PM 36.6336 -83.4314 207° Southwest 345 397 36,000  Level Indianapolis Center
Tue 06:07:26 PM 36.5494 -83.4853 207° Southwest 341 392 36,000  Level Indianapolis Center
Tue 06:08:28 PM 36.4586 -83.5433 207° Southwest 346 398 36,000  Level Indianapolis Center
Tue 06:09:30 PM 36.3728 -83.5989 208° Southwest 345 397 36,000  Level Indianapolis Center
Tue 06:10:32 PM 36.2872 -83.6519 207° Southwest 344 396 36,000  Level Indianapolis Center
Tue 06:11:34 PM 36.2025 -83.7058 207° Southwest 341 392 36,000  Level Indianapolis Center
Tue 06:12:48 PM 36.0956 -83.7742 207° Southwest 345 397 36,000  Level Atlanta Center
Tue 06:13:48 PM 36.0122 -83.8283 208° Southwest 345 397 36,000  Level Atlanta Center
Tue 06:14:48 PM 35.9289 -83.8797 207° Southwest 345 397 36,000  Level Atlanta Center
Tue 06:15:48 PM 35.8331 -83.9133 196° South 365 420 36,000  Level Atlanta Center
Tue 06:16:48 PM 35.7392 -83.9492 197° South 365 420 36,000  Level Atlanta Center
Tue 06:17:48 PM 35.6306 -83.9647 187° South 458 527 36,000  Level Atlanta Center
Tue 06:18:48 PM 35.5264 -83.9878 190° South 428 493 36,000  Level Atlanta Center
Tue 06:19:48 PM 35.4242 -84.0133 192° South 395 455 36,000  Level Atlanta Center
Tue 06:20:48 PM 35.3219 -84.0389 192° South 383 441 36,000  Level Atlanta Center
Tue 06:21:48 PM 35.2175 -84.0617 190° South 383 441 36,000  Level Atlanta Center
Tue 06:22:48 PM 35.1133 -84.0869 191° South 383 441 36,000  Level Atlanta Center
Tue 06:23:48 PM 35.0089 -84.1122 191° South 388 447 36,000  Level Atlanta Center
Tue 06:24:48 PM 34.9025 -84.1400 192° South 393 452 36,000  Level Atlanta Center
Tue 06:25:48 PM 34.8003 -84.1628 190° South 393 452 36,000  Level Atlanta Center
Tue 06:26:48 PM 34.6958 -84.1853 190° South 388 447 36,000  Level Atlanta Center
Tue 06:27:48 PM 34.5936 -84.2103 191° South 388 447 36,000  Level Atlanta Center
Tue 06:28:48 PM 34.4892 -84.2353 191° South 388 447 36,000  Level Atlanta Center
Tue 06:29:48 PM 34.3825 -84.2603 191° South 393 452 36,000  Level Atlanta Center
Tue 06:30:48 PM 34.2658 -84.2878 191° South 393 452 36,000  Level Atlanta Center
Tue 06:31:48 PM 34.1633 -84.3100 190° South 388 447 36,000  Level Atlanta Center
Tue 06:32:48 PM 34.0528 -84.3372 192° South 395 455 36,000  Level Atlanta Center
Tue 06:33:48 PM 33.9483 -84.3644 192° South 384 442 36,000  Level Atlanta Center
Tue 06:34:48 PM 33.8458 -84.3864 190° South 394 453 36,000  Level Atlanta Center
Tue 06:35:48 PM 33.7394 -84.4136 192° South 394 453 36,000  Level Atlanta Center
Tue 06:36:48 PM 33.6369 -84.4331 189° South 399 459 36,000  Level Atlanta Center
Tue 06:37:48 PM 33.5222 -84.4350 181° South 407 468 36,000  Level Atlanta Center
Tue 06:38:48 PM 33.4075 -84.4319 179° South 412 474 36,000  Level Atlanta Center
Tue 06:39:48 PM 33.2844 -84.4339 181° South 412 474 36,000  Level Atlanta Center
Tue 06:40:48 PM 33.1675 -84.4283 178° South 417 480 36,000  Level Atlanta Center
Tue 06:41:48 PM 33.0506 -84.4278 180° South 417 480 36,000  Level Atlanta Center
Tue 06:42:48 PM 32.9317 -84.4225 178° South 422 486 36,000  Level Atlanta Center
Tue 06:43:48 PM 32.8167 -84.4219 180° South 417 480 36,000  Level Atlanta Center
Tue 06:44:48 PM 32.7125 -84.4189 179° South 417 480 36,000  Level Atlanta Center
Tue 06:45:48 PM 32.5956 -84.4161 179° South 422 486 36,000  Level Atlanta Center
Tue 06:46:48 PM 32.4767 -84.4131 179° South 422 486 36,000  Level Atlanta Center
Tue 06:47:48 PM 32.3575 -84.4125 180° South 422 486 36,000  Level Atlanta Center
Tue 06:48:48 PM 32.2428 -84.4097 179° South 422 486 36,000  Level Atlanta Center
Tue 06:50:27 PM 32.0511 -84.4050 179° South 432 497 36,000  Level Jacksonville Center
Tue 06:56:08 PM 31.3505 -84.3894 179° South 433 498 36,000  Level FlightAware ADS-B (KONZ)
Tue 06:57:33 PM 31.1800 -84.3860 179° South 432 497 36,000  Level FlightAware ADS-B (KONZ)
Tue 06:58:15 PM 31.0968 -84.3844 179° South 432 497 36,000 -80 Level FlightAware ADS-B (KONZ)
Tue 06:58:48 PM 31.0316 -84.3832 179° South 432 497 35,900 -380 Descending FlightAware ADS-B
Tue 06:59:34 PM 30.9387 -84.3814 179° South 431 496 35,500 -608 Descending FlightAware ADS-B (KONZ)
Tue 07:00:07 PM 30.8725 -84.3802 179° South 433 498 35,100 -405 Descending FlightAware ADS-B
Tue 07:00:48 PM 30.7902 -84.3786 179° South 433 498 35,000 -74 Descending FlightAware ADS-B
Tue 07:01:28 PM 30.7113 -84.3770 179° South 431 496 35,000  Level FlightAware ADS-B
Tue 07:02:08 PM 30.6312 -84.3692 175° South 441 507 35,000  Level FlightAware ADS-B
Tue 07:02:48 PM 30.5542 -84.3498 168° South 451 519 35,000  Level FlightAware ADS-B
Tue 07:03:25 PM 30.4762 -84.3172 160° South 463 533 35,000  Level FlightAware ADS-B
Tue 07:04:09 PM 30.3934 -84.2668 152° Southeast 471 542 35,000  Level FlightAware ADS-B
Tue 07:04:49 PM 30.3167 -84.2167 151° Southeast 473 544 35,000  Level FlightAware ADS-B
Tue 07:05:24 PM 30.2491 -84.1727 151° Southeast 473 544 35,000  Level FlightAware ADS-B
Tue 07:05:55 PM 30.1901 -84.1342 151° Southeast 474 545 35,000  Level FlightAware ADS-B (KONZ)
Tue 07:06:27 PM 30.1342 -84.0978 151° Southeast 474 545 35,000  Level FlightAware ADS-B
Tue 07:07:07 PM 30.0524 -84.0445 151° Southeast 473 544 35,000  Level FlightAware ADS-B
Tue 07:07:54 PM 29.9671 -83.9892 151° Southeast 471 542 35,000  Level FlightAware ADS-B (KONZ)
Tue 07:08:54 PM 29.9117 -83.9534 151° Southeast 472 543 35,000  Level FlightAware ADS-B (KONZ)
Tue 07:09:27 PM 29.8033 -83.8858 151° Southeast 473 544 35,000  Level Jacksonville Center
Tue 07:10:26 PM 29.6911 -83.8131 151° Southeast 473 544 35,000  Level Jacksonville Center
Tue 07:11:27 PM 29.5769 -83.7403 151° Southeast 473 544 35,000  Level Jacksonville Center
Tue 07:12:26 PM 29.4603 -83.6678 152° Southeast 473 544 35,000  Level Jacksonville Center
Tue 07:13:27 PM 29.3461 -83.5931 150° Southeast 473 544 35,000  Level Jacksonville Center
Tue 07:14:27 PM 29.2317 -83.5208 151° Southeast 473 544 35,000  Level Jacksonville Center
Tue 07:15:26 PM 29.1067 -83.4392 150° Southeast 478 550 35,000  Level Jacksonville Center
Tue 07:16:27 PM 28.9900 -83.3650 151° Southeast 473 544 35,000  Level Jacksonville Center
Tue 07:17:27 PM 28.8733 -83.2908 151° Southeast 478 550 35,000  Level Jacksonville Center
Tue 07:22:43 PM 28.2534 -82.8992 151° Southeast 480 552 35,000  Level FlightAware ADS-B
Tue 07:25:24 PM 27.9549 -82.7136 151° Southeast 478 550 35,000  Level FlightAware ADS-B
Tue 07:25:56 PM 27.8781 -82.6658 151° Southeast 475 547 35,000  Level FlightAware ADS-B
Tue 07:27:02 PM 27.7562 -82.5833 149° Southeast 477 549 35,000  Level FlightAware ADS-B
Tue 07:27:43 PM 27.6763 -82.5299 149° Southeast 474 545 35,000  Level FlightAware ADS-B
Tue 07:28:37 PM 27.5704 -82.4718 154° Southeast 456 525 35,000 -247 Level FlightAware ADS-B
Tue 07:31:46 PM 27.1984 -82.4728 180° South 451 519 34,000 -226 Descending FlightAware ADS-B
Tue 07:33:02 PM 27.0177 -82.4755 181° South 454 522 34,000  Level FlightAware ADS-B
Tue 07:33:57 PM 26.9030 -82.4771 181° South 451 519 34,000  Level FlightAware ADS-B
Tue 07:34:46 PM 26.8005 -82.4786 181° South 451 519 34,000  Level FlightAware ADS-B
Tue 07:35:33 PM 26.7023 -82.4801 181° South 451 519 34,000  Level FlightAware ADS-B
Tue 07:36:14 PM 26.6176 -82.4813 181° South 451 519 34,000  Level FlightAware ADS-B
Tue 07:36:53 PM 26.5363 -82.4825 181° South 453 521 34,000  Level FlightAware ADS-B
Tue 07:37:34 PM 26.4488 -82.4837 181° South 455 524 34,000  Level FlightAware ADS-B
Tue 07:38:36 PM 26.3186 -82.4857 181° South 456 525 34,000  Level FlightAware ADS-B
Tue 07:39:16 PM 26.2326 -82.4869 181° South 455 524 34,000  Level FlightAware ADS-B
Tue 07:40:39 PM 26.0573 -82.4895 181° South 454 522 34,000  Level FlightAware ADS-B
Tue 07:41:22 PM 25.9917 -82.4904 181° South 454 522 34,000  Level FlightAware ADS-B
Tue 07:42:02 PM 25.8837 -82.4920 181° South 455 524 34,000  Level FlightAware ADS-B
Tue 07:42:41 PM 25.8008 -82.4932 181° South 456 525 34,000 -193 Level FlightAware ADS-B
Tue 07:45:09 PM 25.4902 -82.4976 181° South 459 528 33,400 -391 Descending FlightAware ADS-B
Tue 07:45:45 PM 25.4289 -82.5017 181° South 463 533 32,800 -1,500 Descending Miami Center
Tue 07:46:45 PM 25.3056 -82.5028 180° South 456 525 31,000 -1,850 Descending Miami Center
Tue 07:47:45 PM 25.1886 -82.5042 181° South 444 511 29,100 -1,800 Descending Miami Center
Tue 07:48:45 PM 25.0717 -82.5056 181° South 437 503 27,400 -1,700 Descending Miami Center
Tue 07:50:00 PM 24.9457 -82.4892 173° South  Level FlightAware Approximate
Tue 07:57:00 PM 24.2367 -82.4167 180° South  Level FlightAware Approximate
Tue 07:58:00 PM 24.1353 -82.4167 180° South  Level FlightAware Approximate
Tue 07:59:00 PM 24.0368 -82.4017 155° Southeast  Level FlightAware Approximate
Tue 08:00:00 PM 23.9357 -82.4000 180° South  Level FlightAware Approximate
Tue 08:01:00 PM 23.8343 -82.4000 180° South  Level FlightAware Approximate
Tue 08:02:00 PM 23.7329 -82.4000 180° South  Level FlightAware Approximate
Tue 08:03:00 PM 23.6314 -82.4000 180° South  Level FlightAware Approximate
Tue 08:04:00 PM 23.5300 -82.4000 180° South  Level FlightAware Approximate
Tue 08:05:00 PM 23.4286 -82.4000 180° South  Level FlightAware Approximate
Tue 08:06:00 PM 23.3272 -82.4000 180° South  Level FlightAware Approximate
Tue 08:07:00 PM 23.2257 -82.4000 180° South  Level FlightAware Approximate
Tue 08:08:00 PM 23.1243 -82.4000 180° South  Level FlightAware Approximate
Tue 08:09:00 PM 23.0229 -82.4000 180° South  Level FlightAware Approximate
Tue 08:10:00 PM 22.9891 -82.4091 180° South  Level Estimated
Tue 08:11:00 PM 22.9891 -82.4091 180° South  Level Estimated
Tue 08:12:00 PM 22.9891 -82.4091 180° South  Level Estimated
Tue 08:13:00 PM 22.9891 -82.4091 180° South  Level Estimated
Tue 08:14:00 PM 22.9891 -82.4091 180° South  Level Estimated
Tue 08:15:00 PM 22.9891 -82.4091 180° South  Level Estimated
Tue 08:16:00 PM 22.9891 -82.4091 180° South  Level Estimated
Tue 08:17:00 PM 22.9891 -82.4091 180° South  Level Estimated
Tue 08:18:00 PM 22.9891 -82.4091 180° South  Level Estimated
Tue 08:19:00 PM 22.9891 -82.4091 180° South  Level Estimated
Tue 08:20:00 PM 22.9891 -82.4091 180° South  Level Estimated
Tue 08:21:00 PM 22.9891 -82.4091 180° South  Level Estimated
Tue 08:22:00 PM 22.9891 -82.4091 180° South  Level Estimated
Tue 08:23:00 PM 22.9891 -82.4091 180° South  Level Estimated
Tue 08:24:00 PM 22.9891 -82.4091 180° South  Level Estimated
Tue 08:25:00 PM 22.9891 -82.4091 180° South  Level Estimated
Tue 08:26:00 PM 22.9891 -82.4091 180° South  Level Estimated
Tue 08:27:00 PM 22.9891 -82.4091 180° South  Level Estimated
Tue 08:28:00 PM 22.9891 -82.4091 180° South  Level Estimated

Login

Don't have an account? Register now (free) for customized features, flight alerts, and more!